createdAt,value
2018-05-07T00:01:15.262Z,3.63
2018-05-07T00:03:42.787Z,2.30
2018-05-07T00:06:10.358Z,2.40
2018-05-07T00:08:37.895Z,2.37
2018-05-07T00:11:05.428Z,4.13
2018-05-07T00:13:32.975Z,1.80
2018-05-07T00:16:00.489Z,2.07
2018-05-07T00:18:28.018Z,3.77
2018-05-07T00:20:55.536Z,2.23
2018-05-07T00:23:23.073Z,2.97
2018-05-07T00:25:50.634Z,1.87
2018-05-07T00:28:18.190Z,1.67
2018-05-07T00:30:45.754Z,1.43
2018-05-07T00:33:13.351Z,2.10
2018-05-07T00:35:40.787Z,2.40
2018-05-07T00:38:08.335Z,2.53
2018-05-07T00:40:35.863Z,5.03
2018-05-07T00:43:03.594Z,2.00
2018-05-07T00:45:31.124Z,2.10
2018-05-07T00:47:58.636Z,2.77
2018-05-07T00:50:26.132Z,4.90
2018-05-07T00:52:53.666Z,2.00
2018-05-07T00:55:21.953Z,2.87
2018-05-07T00:57:49.455Z,3.00
2018-05-07T01:00:17.019Z,4.00
2018-05-07T01:02:44.540Z,2.93
2018-05-07T01:05:12.665Z,2.50
2018-05-07T01:07:40.207Z,2.70
2018-05-07T01:10:08.093Z,2.33
2018-05-07T01:12:35.616Z,2.67
2018-05-07T01:15:03.148Z,4.83
2018-05-07T01:17:30.676Z,2.67
2018-05-07T01:19:58.184Z,2.37
2018-05-07T01:22:25.696Z,2.30
2018-05-07T01:24:53.229Z,5.30
2018-05-07T01:27:20.980Z,1.80
2018-05-07T01:29:48.496Z,3.27
2018-05-07T01:32:16.013Z,2.33
2018-05-07T01:34:43.519Z,1.93
2018-05-07T01:37:11.037Z,1.50
2018-05-07T01:39:38.552Z,3.87
2018-05-07T01:42:06.050Z,2.50
2018-05-07T01:44:33.567Z,3.50
2018-05-07T01:47:01.104Z,2.00
2018-05-07T01:49:28.641Z,2.73
2018-05-07T01:51:56.151Z,2.13
2018-05-07T01:54:23.663Z,1.93
2018-05-07T01:56:51.159Z,2.33
2018-05-07T01:59:18.691Z,1.60
2018-05-07T02:01:46.216Z,2.93
2018-05-07T02:04:13.727Z,1.70
2018-05-07T02:06:41.227Z,1.90
2018-05-07T02:09:08.779Z,5.27
2018-05-07T02:11:36.287Z,1.90
2018-05-07T02:14:03.800Z,2.07
2018-05-07T02:16:31.312Z,1.87
2018-05-07T02:18:58.818Z,1.53
2018-05-07T02:21:26.342Z,2.87
2018-05-07T02:23:53.860Z,1.53
2018-05-07T02:26:21.403Z,1.97
2018-05-07T02:28:48.923Z,2.00
2018-05-07T02:31:16.503Z,2.60
2018-05-07T02:33:43.941Z,1.93
2018-05-07T02:36:11.484Z,1.27
2018-05-07T02:38:38.983Z,1.53
2018-05-07T02:41:06.478Z,3.07
2018-05-07T02:43:34.011Z,1.57
2018-05-07T02:46:01.519Z,1.50
2018-05-07T02:48:29.073Z,1.23
2018-05-07T02:50:56.595Z,1.93
2018-05-07T02:53:24.155Z,1.60
2018-05-07T02:55:51.675Z,1.83
2018-05-07T02:58:19.223Z,2.70
2018-05-07T03:00:46.727Z,2.20
2018-05-07T03:03:14.275Z,2.20
2018-05-07T03:05:42.007Z,1.80
2018-05-07T03:08:09.588Z,2.07
2018-05-07T03:10:37.093Z,2.30
2018-05-07T03:13:04.626Z,1.53
2018-05-07T03:15:32.176Z,6.23
2018-05-07T03:17:59.729Z,7.57
2018-05-07T03:20:27.254Z,2.43
2018-05-07T03:22:54.809Z,2.17
2018-05-07T03:25:22.346Z,2.60
2018-05-07T03:27:49.872Z,1.63
2018-05-07T03:30:17.430Z,1.50
2018-05-07T03:32:44.934Z,1.77
2018-05-07T03:35:12.448Z,1.60
2018-05-07T03:37:39.967Z,6.33
2018-05-07T03:40:07.480Z,2.33
2018-05-07T03:42:35.007Z,1.90
2018-05-07T03:45:02.592Z,2.33
2018-05-07T03:47:30.221Z,1.60
2018-05-07T03:49:57.794Z,3.33
2018-05-07T03:52:25.307Z,4.10
2018-05-07T03:54:52.828Z,1.50
2018-05-07T03:57:20.342Z,1.73
2018-05-07T03:59:47.945Z,1.90
2018-05-07T04:02:15.417Z,2.27
2018-05-07T04:04:42.927Z,1.03
2018-05-07T04:07:11.404Z,1.83
2018-05-07T04:09:38.926Z,1.73
2018-05-07T04:12:06.479Z,1.33
2018-05-07T04:14:34.024Z,0.90
2018-05-07T04:17:13.152Z,4.03
2018-05-07T04:19:52.419Z,8.77
2018-05-07T04:22:31.668Z,9.00
2018-05-07T04:24:59.179Z,11.20
2018-05-07T04:27:26.765Z,13.37
2018-05-07T04:29:54.587Z,10.73
2018-05-07T04:32:22.115Z,9.60
2018-05-07T04:34:49.627Z,9.17
2018-05-07T04:37:17.179Z,9.43
2018-05-07T04:39:44.683Z,11.03
2018-05-07T04:42:12.195Z,10.07
2018-05-07T04:44:39.695Z,9.10
2018-05-07T04:47:07.195Z,10.07
2018-05-07T04:49:34.717Z,10.17
2018-05-07T04:52:03.096Z,10.90
2018-05-07T04:54:30.624Z,11.13
2018-05-07T04:56:58.770Z,9.43
2018-05-07T04:59:26.515Z,11.73
2018-05-07T05:01:54.102Z,11.03
2018-05-07T05:04:21.612Z,9.87
2018-05-07T05:06:49.157Z,10.23
2018-05-07T05:09:16.655Z,10.53
2018-05-07T05:11:45.163Z,10.50
2018-05-07T05:14:12.771Z,10.27
2018-05-07T05:16:40.315Z,10.23
2018-05-07T05:19:07.883Z,11.13
2018-05-07T05:21:35.399Z,11.70
2018-05-07T05:24:02.935Z,10.80
2018-05-07T05:26:30.500Z,11.40
2018-05-07T05:28:58.008Z,10.47
2018-05-07T05:31:25.552Z,11.47
2018-05-07T05:33:53.142Z,12.30
2018-05-07T05:36:20.739Z,13.00
2018-05-07T05:38:48.739Z,13.70
2018-05-07T05:41:16.305Z,11.77
2018-05-07T05:43:43.912Z,13.70
2018-05-07T05:46:11.407Z,11.60
2018-05-07T05:48:39.021Z,10.73
2018-05-07T05:51:06.551Z,11.20
2018-05-07T05:53:34.089Z,11.73
2018-05-07T05:56:01.627Z,11.70
2018-05-07T05:58:29.183Z,11.83
2018-05-07T06:00:56.772Z,12.23
2018-05-07T06:03:24.338Z,11.40
2018-05-07T06:05:51.912Z,10.63
2018-05-07T06:08:19.881Z,11.97
2018-05-07T06:10:48.199Z,10.53
2018-05-07T06:13:15.752Z,9.93
2018-05-07T06:15:43.290Z,9.23
2018-05-07T06:18:10.830Z,9.30
2018-05-07T06:20:38.383Z,10.87
2018-05-07T06:23:05.974Z,10.70
2018-05-07T06:25:33.487Z,12.10
2018-05-07T06:28:01.050Z,11.93
2018-05-07T06:30:28.659Z,15.67
2018-05-07T06:32:56.260Z,18.77
2018-05-07T06:35:23.784Z,15.57
2018-05-07T06:37:51.363Z,14.13
2018-05-07T06:40:18.970Z,12.53
2018-05-07T06:42:46.616Z,12.50
2018-05-07T06:45:14.233Z,10.60
2018-05-07T06:47:41.819Z,11.27
2018-05-07T06:50:09.417Z,11.30
2018-05-07T06:52:37.081Z,9.60
2018-05-07T06:55:05.099Z,14.30
2018-05-07T06:57:32.659Z,10.33
2018-05-07T07:00:00.256Z,9.37
2018-05-07T07:02:27.931Z,10.80
2018-05-07T07:04:55.444Z,10.13
2018-05-07T07:07:23.129Z,8.33
2018-05-07T07:09:50.623Z,11.43
2018-05-07T07:12:18.115Z,9.03
2018-05-07T07:14:45.677Z,7.83
2018-05-07T07:17:13.167Z,9.40
2018-05-07T07:19:40.680Z,8.43
2018-05-07T07:22:08.195Z,12.27
2018-05-07T07:24:35.727Z,8.47
2018-05-07T07:27:03.225Z,8.47
2018-05-07T07:29:31.743Z,9.17
2018-05-07T07:31:59.283Z,8.63
2018-05-07T07:34:26.809Z,7.93
2018-05-07T07:36:54.383Z,8.30
2018-05-07T07:39:21.893Z,8.47
2018-05-07T07:41:49.404Z,7.10
2018-05-07T07:44:17.014Z,11.40
2018-05-07T07:46:44.592Z,7.53
2018-05-07T07:49:12.164Z,7.03
2018-05-07T07:51:39.676Z,7.87
2018-05-07T07:54:07.189Z,7.73
2018-05-07T07:56:34.690Z,6.43
2018-05-07T07:59:02.192Z,7.60
2018-05-07T08:01:29.688Z,6.17
2018-05-07T08:03:57.199Z,7.67
2018-05-07T08:06:24.734Z,6.60
2018-05-07T08:08:52.237Z,6.90
2018-05-07T08:11:19.735Z,8.43
2018-05-07T08:13:47.243Z,10.57
2018-05-07T08:16:14.736Z,8.13
2018-05-07T08:18:42.240Z,8.40
2018-05-07T08:21:09.743Z,7.47
2018-05-07T08:23:37.250Z,7.53
2018-05-07T08:26:04.754Z,9.33
2018-05-07T08:28:32.248Z,9.97
2018-05-07T08:30:59.743Z,6.57
2018-05-07T08:33:27.259Z,7.10
2018-05-07T08:35:54.768Z,7.83
2018-05-07T08:38:22.262Z,7.93
2018-05-07T08:40:49.766Z,10.80
2018-05-07T08:43:17.262Z,11.10
2018-05-07T08:45:44.779Z,15.00
2018-05-07T08:48:12.278Z,13.63
2018-05-07T08:50:39.783Z,7.90
2018-05-07T08:53:07.380Z,9.60
2018-05-07T08:55:34.864Z,10.73
2018-05-07T08:58:02.372Z,13.47
2018-05-07T09:00:29.928Z,9.80
2018-05-07T09:02:57.480Z,6.17
2018-05-07T09:05:24.984Z,6.63
2018-05-07T09:07:52.489Z,7.43
2018-05-07T09:10:20.006Z,9.37
2018-05-07T09:12:47.526Z,10.23
2018-05-07T09:15:15.032Z,9.80
2018-05-07T09:17:42.537Z,6.10
2018-05-07T09:20:10.048Z,11.77
2018-05-07T09:22:37.553Z,6.80
2018-05-07T09:25:05.043Z,6.60
2018-05-07T09:27:32.535Z,6.57
2018-05-07T09:30:00.025Z,8.17
2018-05-07T09:32:27.529Z,8.83
2018-05-07T09:34:55.039Z,10.10
2018-05-07T09:37:22.533Z,6.90
2018-05-07T09:39:50.049Z,6.53
2018-05-07T09:42:17.551Z,7.53
2018-05-07T09:44:45.055Z,9.63
2018-05-07T09:47:12.591Z,8.60
2018-05-07T09:49:40.100Z,6.93
2018-05-07T09:52:07.596Z,7.30
2018-05-07T09:54:35.092Z,8.50
2018-05-07T09:57:02.650Z,7.90
2018-05-07T09:59:30.158Z,7.73
2018-05-07T10:01:57.650Z,7.50
2018-05-07T10:04:25.144Z,7.10
2018-05-07T10:06:52.662Z,9.23
2018-05-07T10:09:20.237Z,7.20
2018-05-07T10:11:47.736Z,7.07
2018-05-07T10:14:15.278Z,10.60
2018-05-07T10:16:42.790Z,14.87
2018-05-07T10:19:10.396Z,6.50
2018-05-07T10:21:37.896Z,8.53
2018-05-07T10:24:05.420Z,7.57
2018-05-07T10:26:32.918Z,7.10
2018-05-07T10:29:00.473Z,6.67
2018-05-07T10:31:28.028Z,7.40
2018-05-07T10:33:55.522Z,8.33
2018-05-07T10:36:23.036Z,7.50
2018-05-07T10:38:50.540Z,6.80
2018-05-07T10:41:18.055Z,8.33
2018-05-07T10:43:45.563Z,11.20
2018-05-07T10:46:13.104Z,7.70
2018-05-07T10:48:40.643Z,6.97
2018-05-07T10:51:08.137Z,8.27
2018-05-07T10:53:35.639Z,7.40
2018-05-07T10:56:03.144Z,9.50
2018-05-07T10:58:30.648Z,8.63
2018-05-07T11:00:58.187Z,13.17
2018-05-07T11:03:25.693Z,11.20
2018-05-07T11:05:53.243Z,11.73
2018-05-07T11:08:20.802Z,8.77
2018-05-07T11:10:48.303Z,10.83
2018-05-07T11:13:15.815Z,10.37
2018-05-07T11:15:43.323Z,9.37
2018-05-07T11:18:10.835Z,13.23
2018-05-07T11:20:38.341Z,13.70
2018-05-07T11:23:06.619Z,11.70
2018-05-07T11:25:34.126Z,10.73
2018-05-07T11:28:01.671Z,11.10
2018-05-07T11:30:29.354Z,12.47
2018-05-07T11:32:56.984Z,11.50
2018-05-07T11:35:24.499Z,11.10
2018-05-07T11:37:52.050Z,14.87
2018-05-07T11:40:19.590Z,18.33
2018-05-07T11:42:47.095Z,14.97
2018-05-07T11:45:14.595Z,12.87
2018-05-07T11:47:42.104Z,9.00
2018-05-07T11:50:09.622Z,9.47
2018-05-07T11:52:37.129Z,15.33
2018-05-07T11:55:04.658Z,10.33
2018-05-07T11:57:32.179Z,15.07
2018-05-07T11:59:59.682Z,8.23
2018-05-07T12:02:27.239Z,7.30
2018-05-07T12:04:54.707Z,12.53
2018-05-07T12:07:22.208Z,8.27
2018-05-07T12:09:49.784Z,9.50
2018-05-07T12:12:17.291Z,9.47
2018-05-07T12:14:44.830Z,10.37
2018-05-07T12:17:12.364Z,8.83
2018-05-07T12:19:40.691Z,7.73
2018-05-07T12:22:08.344Z,9.43
2018-05-07T12:24:37.043Z,7.93
2018-05-07T12:27:04.628Z,8.13
2018-05-07T12:29:32.155Z,10.17
2018-05-07T12:31:59.664Z,10.30
2018-05-07T12:34:27.206Z,7.10
2018-05-07T12:36:54.718Z,8.20
2018-05-07T12:39:22.235Z,7.93
2018-05-07T12:41:49.782Z,8.30
2018-05-07T12:44:17.301Z,8.07
2018-05-07T12:46:44.861Z,13.77
2018-05-07T12:49:12.366Z,10.03
2018-05-07T12:51:39.869Z,7.07
2018-05-07T12:54:07.416Z,9.73
2018-05-07T12:56:34.937Z,8.40
2018-05-07T12:59:02.502Z,8.67
2018-05-07T13:01:29.989Z,10.33
2018-05-07T13:03:57.549Z,13.60
2018-05-07T13:06:25.116Z,8.70
2018-05-07T13:08:52.634Z,8.27
2018-05-07T13:11:20.155Z,10.70
2018-05-07T13:13:47.656Z,9.63
2018-05-07T13:16:15.261Z,8.30
2018-05-07T13:18:42.775Z,8.20
2018-05-07T13:21:10.275Z,7.60
2018-05-07T13:23:37.784Z,8.50
2018-05-07T13:26:05.299Z,10.50
2018-05-07T13:28:32.947Z,7.63
2018-05-07T13:31:00.461Z,7.87
2018-05-07T13:33:27.978Z,17.03
2018-05-07T13:35:55.541Z,11.17
2018-05-07T13:38:23.049Z,12.30
2018-05-07T13:40:50.636Z,9.03
2018-05-07T13:43:18.406Z,7.47
2018-05-07T13:45:46.131Z,8.90
2018-05-07T13:48:15.117Z,11.97
2018-05-07T13:50:42.683Z,9.17
2018-05-07T13:53:10.193Z,8.87
2018-05-07T13:55:37.704Z,7.77
2018-05-07T13:58:05.204Z,9.60
2018-05-07T14:00:32.739Z,7.57
2018-05-07T14:03:00.655Z,11.30
2018-05-07T14:05:28.144Z,11.90
2018-05-07T14:07:55.647Z,9.33
2018-05-07T14:10:23.155Z,11.37
2018-05-07T14:12:50.688Z,9.47
2018-05-07T14:15:18.195Z,11.10
2018-05-07T14:17:45.695Z,8.60
2018-05-07T14:20:13.200Z,10.60
2018-05-07T14:22:40.729Z,10.37
2018-05-07T14:25:08.287Z,11.60
2018-05-07T14:27:35.795Z,10.53
2018-05-07T14:30:04.751Z,7.60
2018-05-07T14:32:32.257Z,10.67
2018-05-07T14:34:59.750Z,8.07
2018-05-07T14:37:27.258Z,10.87
2018-05-07T14:39:54.774Z,9.83
2018-05-07T14:42:22.292Z,12.87
2018-05-07T14:44:49.805Z,13.70
2018-05-07T14:47:17.315Z,10.00
2018-05-07T14:49:44.821Z,8.87
2018-05-07T14:52:12.362Z,11.77
2018-05-07T14:54:39.874Z,7.60
2018-05-07T14:57:07.383Z,14.80
2018-05-07T14:59:34.926Z,10.13
2018-05-07T15:02:02.463Z,11.40
2018-05-07T15:04:29.975Z,12.37
2018-05-07T15:06:57.496Z,10.23
2018-05-07T15:09:25.031Z,9.50
2018-05-07T15:11:52.666Z,9.73
2018-05-07T15:14:24.035Z,11.20
2018-05-07T15:16:51.573Z,6.87
2018-05-07T15:19:19.128Z,7.60
2018-05-07T15:21:46.628Z,7.83
2018-05-07T15:24:14.182Z,7.83
2018-05-07T15:26:41.798Z,12.70
2018-05-07T15:29:09.389Z,10.40
2018-05-07T15:31:36.904Z,7.50
2018-05-07T15:34:04.442Z,7.87
2018-05-07T15:36:31.948Z,9.03
2018-05-07T15:38:59.455Z,10.57
2018-05-07T15:41:26.975Z,11.40
2018-05-07T15:43:54.489Z,10.27
2018-05-07T15:46:22.035Z,9.07
2018-05-07T15:48:49.551Z,8.63
2018-05-07T15:51:17.067Z,9.10
2018-05-07T15:53:44.575Z,12.00
2018-05-07T15:56:12.088Z,9.07
2018-05-07T15:58:39.622Z,7.90
2018-05-07T16:01:07.175Z,9.80
2018-05-07T16:03:34.696Z,10.67
2018-05-07T16:06:02.203Z,7.63
2018-05-07T16:08:29.817Z,10.90
2018-05-07T16:10:57.353Z,10.13
2018-05-07T16:13:25.780Z,9.27
2018-05-07T16:15:53.327Z,6.73
2018-05-07T16:18:20.880Z,9.13
2018-05-07T16:20:48.446Z,7.33
2018-05-07T16:23:16.136Z,7.33
2018-05-07T16:25:43.544Z,10.00
2018-05-07T16:28:11.145Z,9.70
2018-05-07T16:30:38.617Z,12.23
2018-05-07T16:33:06.180Z,9.03
2018-05-07T16:35:33.704Z,14.17
2018-05-07T16:38:01.223Z,11.40
2018-05-07T16:40:28.783Z,13.30
2018-05-07T16:42:56.367Z,10.33
2018-05-07T16:45:24.137Z,10.10
2018-05-07T16:47:51.704Z,14.77
2018-05-07T16:50:19.243Z,28.63
2018-05-07T16:52:46.775Z,13.13
2018-05-07T16:55:14.296Z,13.97
2018-05-07T16:57:41.816Z,15.83
2018-05-07T17:00:09.698Z,14.97
2018-05-07T17:02:37.343Z,18.53
2018-05-07T17:05:04.871Z,16.43
2018-05-07T17:07:32.398Z,25.53
2018-05-07T17:10:00.102Z,21.87
2018-05-07T17:12:27.630Z,18.17
2018-05-07T17:14:55.278Z,22.47
2018-05-07T17:17:22.707Z,11.43
2018-05-07T17:19:50.200Z,8.00
2018-05-07T17:22:17.707Z,7.50
2018-05-07T17:24:45.248Z,10.67
2018-05-07T17:27:12.859Z,9.10
2018-05-07T17:29:40.356Z,8.97
2018-05-07T17:32:07.892Z,7.13
2018-05-07T17:34:35.437Z,7.90
2018-05-07T17:37:03.068Z,8.90
2018-05-07T17:39:30.621Z,9.37
2018-05-07T17:41:58.111Z,8.50
2018-05-07T17:44:37.392Z,11.47
2018-05-07T17:47:16.712Z,10.37
2018-05-07T17:49:44.244Z,9.93
2018-05-07T17:52:11.765Z,8.37
2018-05-07T17:54:39.351Z,11.17
2018-05-07T17:57:06.841Z,8.53
2018-05-07T17:59:34.459Z,8.87
2018-05-07T18:02:01.988Z,7.37
2018-05-07T18:04:29.497Z,12.27
2018-05-07T18:06:57.019Z,11.90
2018-05-07T18:09:24.592Z,14.00
2018-05-07T18:11:52.129Z,12.53
2018-05-07T18:14:19.645Z,9.53
2018-05-07T18:16:47.157Z,9.87
2018-05-07T18:19:14.748Z,12.07
2018-05-07T18:21:42.254Z,8.03
2018-05-07T18:24:09.764Z,12.83
2018-05-07T18:26:37.330Z,10.27
2018-05-07T18:29:04.845Z,16.37
2018-05-07T18:31:33.169Z,12.03
2018-05-07T18:34:00.672Z,15.80
2018-05-07T18:36:28.224Z,10.23
2018-05-07T18:38:55.818Z,8.50
2018-05-07T18:41:23.274Z,8.77
2018-05-07T18:43:50.793Z,11.03
2018-05-07T18:46:18.294Z,10.20
2018-05-07T18:48:45.804Z,11.23
2018-05-07T18:51:13.356Z,12.47
2018-05-07T18:53:40.881Z,10.47
2018-05-07T18:56:08.380Z,7.83
2018-05-07T18:58:36.741Z,10.13
2018-05-07T19:01:04.253Z,11.73
2018-05-07T19:03:31.794Z,9.97
2018-05-07T19:05:59.306Z,13.33
2018-05-07T19:08:26.839Z,8.47
2018-05-07T19:10:54.397Z,13.30
2018-05-07T19:13:21.907Z,14.17
2018-05-07T19:15:49.457Z,10.87
2018-05-07T19:18:16.967Z,8.70
2018-05-07T19:20:44.519Z,9.40
2018-05-07T19:23:12.032Z,11.70
2018-05-07T19:25:39.565Z,16.27
2018-05-07T19:28:07.101Z,11.37
2018-05-07T19:30:35.435Z,11.40
2018-05-07T19:33:02.956Z,11.07
2018-05-07T19:35:30.451Z,9.43
2018-05-07T19:37:57.975Z,11.33
2018-05-07T19:40:25.490Z,10.30
2018-05-07T19:42:52.987Z,12.40
2018-05-07T19:45:20.546Z,11.57
2018-05-07T19:47:48.180Z,11.30
2018-05-07T19:50:15.658Z,12.20
2018-05-07T19:52:43.166Z,10.23
2018-05-07T19:55:10.743Z,10.57
2018-05-07T19:57:38.284Z,9.70
2018-05-07T20:00:05.836Z,10.70
2018-05-07T20:02:33.382Z,17.87
2018-05-07T20:05:00.887Z,11.20
2018-05-07T20:10:10.386Z,9.23
2018-05-07T20:12:37.969Z,10.17
2018-05-07T20:15:05.433Z,7.20
2018-05-07T20:17:32.950Z,8.20
2018-05-07T20:20:00.463Z,7.77
2018-05-07T20:22:28.009Z,11.80
2018-05-07T20:24:55.515Z,11.50
2018-05-07T20:27:23.015Z,8.57
2018-05-07T20:29:50.525Z,7.63
2018-05-07T20:32:18.033Z,9.07
2018-05-07T20:34:45.541Z,10.80
2018-05-07T20:37:13.092Z,8.30
2018-05-07T20:39:40.670Z,11.63
2018-05-07T20:42:08.239Z,7.67
2018-05-07T20:44:35.754Z,8.57
2018-05-07T20:47:03.265Z,11.50
2018-05-07T20:49:30.788Z,10.90
2018-05-07T20:51:58.293Z,9.90
2018-05-07T20:54:25.841Z,14.97
2018-05-07T20:56:53.400Z,10.57
2018-05-07T20:59:20.949Z,12.50
2018-05-07T21:01:48.532Z,10.43
2018-05-07T21:04:16.046Z,12.80
2018-05-07T21:06:43.564Z,11.30
2018-05-07T21:09:11.075Z,11.87
2018-05-07T21:11:38.585Z,11.27
2018-05-07T21:14:06.096Z,11.73
2018-05-07T21:16:33.597Z,10.83
2018-05-07T21:19:01.090Z,11.90
2018-05-07T21:21:28.596Z,9.90
2018-05-07T21:23:56.099Z,10.70
2018-05-07T21:26:23.597Z,9.70
2018-05-07T21:28:51.107Z,11.37
2018-05-07T21:31:18.659Z,10.40
2018-05-07T21:33:46.162Z,10.67
2018-05-07T21:36:13.676Z,10.30
2018-05-07T21:38:41.176Z,8.93
2018-05-07T21:41:08.685Z,9.13
2018-05-07T21:43:36.236Z,9.03
2018-05-07T21:46:03.743Z,9.10
2018-05-07T21:48:31.266Z,8.57
2018-05-07T21:50:58.815Z,9.27
2018-05-07T21:53:26.323Z,10.07
2018-05-07T21:55:53.879Z,8.70
2018-05-07T21:58:21.379Z,10.07
2018-05-07T22:00:48.920Z,8.50
2018-05-07T22:03:16.410Z,8.80
2018-05-07T22:05:43.954Z,8.30
2018-05-07T22:08:11.462Z,8.53
2018-05-07T22:10:38.969Z,10.73
2018-05-07T22:13:06.473Z,9.80
2018-05-07T22:15:34.007Z,7.97
2018-05-07T22:18:01.519Z,9.77
2018-05-07T22:20:29.041Z,9.90
2018-05-07T22:22:56.543Z,10.63
2018-05-07T22:25:24.047Z,8.03
2018-05-07T22:27:51.567Z,7.73
2018-05-07T22:30:19.114Z,7.90
2018-05-07T22:32:46.621Z,8.93
2018-05-07T22:35:14.125Z,8.67
2018-05-07T22:37:41.662Z,8.23
2018-05-07T22:40:09.158Z,8.60
2018-05-07T22:42:37.017Z,10.20
2018-05-07T22:45:04.515Z,10.20
2018-05-07T22:47:32.054Z,10.13
2018-05-07T22:49:59.574Z,9.23
2018-05-07T22:52:27.098Z,13.17
2018-05-07T22:55:25.084Z,8.47
2018-05-07T22:57:52.574Z,8.77
2018-05-07T23:00:20.063Z,8.80
2018-05-07T23:02:48.513Z,9.20
2018-05-07T23:05:16.046Z,9.23
2018-05-07T23:07:43.539Z,9.00
2018-05-07T23:10:11.060Z,9.03
2018-05-07T23:12:38.589Z,7.87
2018-05-07T23:15:06.095Z,9.33
2018-05-07T23:17:33.616Z,11.57
2018-05-07T23:20:01.118Z,8.57
2018-05-07T23:22:28.619Z,9.13
2018-05-07T23:24:56.121Z,8.57
2018-05-07T23:27:23.627Z,10.37
2018-05-07T23:29:51.170Z,8.10
2018-05-07T23:32:18.663Z,8.40
2018-05-07T23:34:46.164Z,10.47
2018-05-07T23:37:13.669Z,8.50
2018-05-07T23:39:41.165Z,8.73
2018-05-07T23:42:08.658Z,8.30
2018-05-07T23:44:36.162Z,10.73
2018-05-07T23:47:03.660Z,9.73
2018-05-07T23:49:31.158Z,9.87
2018-05-07T23:51:58.660Z,8.17
2018-05-07T23:54:26.177Z,8.10
2018-05-07T23:56:53.670Z,11.20
2018-05-07T23:59:21.217Z,8.33
